Time;durP1;ratioP1;P1;durP2;ratioP2;P2;SDS_P1;SDS_P2;PMS_P1;PMS_P2;Temp;Humidity;BMP_temperature;BMP_pressure;BME280_temperature;BME280_humidity;BME280_pressure;Samples;Min_cycle;Max_cycle;Signal;HPM_P1;HPM_P2
2023/02/22 00:04:53;;;;;;;0.20;0.10;;;12.90;99.90;;;;;;21132642;28;20402;-69
2023/02/22 00:14:58;;;;;;;0.20;0.10;;;13.10;99.90;;;;;;21131486;28;20411;-69
2023/02/22 00:25:03;;;;;;;0.20;0.00;;;12.80;99.90;;;;;;21130180;28;21173;-68
2023/02/22 00:35:08;;;;;;;0.20;0.10;;;12.80;99.90;;;;;;21129328;28;20753;-69
2023/02/22 00:45:13;;;;;;;0.20;0.10;;;12.40;99.90;;;;;;21112283;28;21088;-70
2023/02/22 00:55:21;;;;;;;0.20;0.10;;;12.20;99.90;;;;;;21147265;28;20928;-69
2023/02/22 01:05:27;;;;;;;0.20;0.10;;;11.90;99.90;;;;;;21128554;28;20399;-69
2023/02/22 01:15:32;;;;;;;0.20;0.10;;;11.60;99.90;;;;;;21128117;28;20403;-68
2023/02/22 01:25:36;;;;;;;0.20;0.10;;;11.50;99.90;;;;;;21128181;28;20470;-67
2023/02/22 01:35:45;;;;;;;0.20;0.00;;;11.40;99.90;;;;;;21147233;28;20414;-68
2023/02/22 01:45:55;;;;;;;0.20;0.00;;;11.50;99.90;;;;;;21142657;28;20909;-69
2023/02/22 01:56:01;;;;;;;0.20;0.00;;;11.60;99.90;;;;;;21142444;28;20489;-68
2023/02/22 02:06:10;;;;;;;0.20;0.10;;;11.60;99.90;;;;;;21125030;28;20410;-68
2023/02/22 02:16:15;;;;;;;0.20;0.10;;;11.40;99.90;;;;;;21158577;28;20414;-69
2023/02/22 02:26:52;;;;;;;0.20;0.10;;;11.00;99.90;;;;;;21140315;28;20939;-69
2023/02/22 02:37:02;;;;;;;0.20;0.10;;;10.50;99.90;;;;;;21151642;28;20419;-67
2023/02/22 02:47:11;;;;;;;0.20;0.10;;;10.50;99.90;;;;;;21155054;28;20403;-68
2023/02/22 02:57:16;;;;;;;0.20;0.00;;;10.40;99.90;;;;;;21155742;28;20501;-68
2023/02/22 03:07:41;;;;;;;0.20;0.10;;;10.00;99.90;;;;;;21155360;28;20398;-67
2023/02/22 03:17:54;;;;;;;0.20;0.10;;;10.10;99.90;;;;;;21135920;28;20434;-67
2023/02/22 03:28:03;;;;;;;0.20;0.10;;;10.10;99.90;;;;;;21153819;28;20407;-68
2023/02/22 03:38:12;;;;;;;0.20;0.03;;;9.90;99.90;;;;;;21150396;28;20791;-69
2023/02/22 03:48:23;;;;;;;0.20;0.10;;;9.90;99.90;;;;;;21121259;28;20410;-69
2023/02/22 03:58:32;;;;;;;0.20;0.10;;;9.60;99.90;;;;;;21132493;28;20417;-68
2023/02/22 04:08:35;;;;;;;0.20;0.10;;;9.70;99.90;;;;;;21150392;28;20406;-68
2023/02/22 04:18:41;;;;;;;0.20;0.10;;;9.70;99.90;;;;;;21131360;28;20870;-70
2023/02/22 04:28:44;;;;;;;0.20;0.10;;;9.50;99.90;;;;;;21113565;28;20398;-69
2023/02/22 04:38:49;;;;;;;0.20;0.10;;;9.50;99.90;;;;;;21140327;28;20415;-68
2023/02/22 04:48:54;;;;;;;0.20;0.10;;;9.60;99.90;;;;;;21124176;28;20394;-69
2023/02/22 04:58:59;;;;;;;0.20;0.10;;;9.70;99.90;;;;;;21146490;28;20406;-69
2023/02/22 05:09:03;;;;;;;0.20;0.10;;;9.60;99.90;;;;;;21128372;28;20784;-69
2023/02/22 05:19:08;;;;;;;0.20;0.10;;;9.50;99.90;;;;;;21163079;28;20504;-68
2023/02/22 05:29:12;;;;;;;0.20;0.10;;;9.40;99.90;;;;;;21162488;28;20827;-69
2023/02/22 05:39:18;;;;;;;0.20;0.10;;;9.40;99.90;;;;;;21143852;28;20963;-68
2023/02/22 05:49:21;;;;;;;0.20;0.00;;;9.40;99.90;;;;;;21142241;28;20394;-69
2023/02/22 05:59:28;;;;;;;0.20;0.10;;;9.40;99.90;;;;;;21158890;28;20490;-69
2023/02/22 06:09:32;;;;;;;0.20;0.00;;;9.10;99.90;;;;;;21127421;28;20893;-69
2023/02/22 06:19:37;;;;;;;0.20;0.10;;;9.10;99.90;;;;;;21112212;28;20413;-69
2023/02/22 06:29:45;;;;;;;0.20;0.00;;;9.30;99.90;;;;;;21139154;28;20403;-68
2023/02/22 06:39:50;;;;;;;0.20;0.10;;;9.30;99.90;;;;;;21137284;28;20430;-70
2023/02/22 06:49:55;;;;;;;0.20;0.00;;;9.60;99.90;;;;;;21134901;28;20401;-70
2023/02/22 07:00:03;;;;;;;0.20;0.07;;;9.70;99.90;;;;;;21115280;28;20976;-68
2023/02/22 07:10:08;;;;;;;0.20;0.10;;;10.10;99.90;;;;;;21149811;28;20398;-69
2023/02/22 07:20:13;;;;;;;0.20;0.10;;;10.40;99.90;;;;;;21152133;28;20438;-70
2023/02/22 07:30:19;;;;;;;0.20;0.10;;;10.50;99.90;;;;;;21151068;28;20506;-70
2023/02/22 07:40:25;;;;;;;0.20;0.10;;;10.80;99.90;;;;;;21131290;28;20471;-69
2023/02/22 07:50:31;;;;;;;2.07;2.00;;;11.50;99.90;;;;;;21148618;28;20405;-70
2023/02/22 08:00:39;;;;;;;0.20;0.10;;;11.60;99.90;;;;;;21128836;28;20410;-70
2023/02/22 08:10:43;;;;;;;0.20;0.10;;;12.10;99.90;;;;;;21147920;28;20425;-70
2023/02/22 08:20:50;;;;;;;0.20;0.00;;;12.30;99.90;;;;;;21149987;28;20456;-69
2023/02/22 08:30:55;;;;;;;0.20;0.00;;;12.60;99.90;;;;;;21111063;28;20750;-69
2023/02/22 08:41:00;;;;;;;0.20;0.10;;;12.90;99.90;;;;;;21145943;28;20391;-69
2023/02/22 08:51:04;;;;;;;0.20;0.00;;;13.20;99.90;;;;;;21143511;28;20863;-68
2023/02/22 09:01:09;;;;;;;0.20;0.08;;;13.90;99.90;;;;;;21143541;28;20391;-69
2023/02/22 09:11:13;;;;;;;0.20;0.00;;;14.40;99.90;;;;;;21125460;28;20592;-69
2023/02/22 09:21:19;;;;;;;0.20;0.10;;;15.40;99.90;;;;;;21126207;28;20395;-69
2023/02/22 09:31:24;;;;;;;0.20;0.10;;;15.30;99.90;;;;;;21143922;28;20415;-71
2023/02/22 09:41:35;;;;;;;0.20;0.10;;;15.00;99.90;;;;;;21121252;28;20803;-70
2023/02/22 09:51:43;;;;;;;0.20;0.00;;;15.20;99.90;;;;;;21141115;28;20410;-67
2023/02/22 10:01:55;;;;;;;0.20;0.10;;;15.30;99.90;;;;;;21132586;28;20398;-69
2023/02/22 10:12:03;;;;;;;0.20;0.10;;;15.60;99.90;;;;;;21156409;28;20407;-69
2023/02/22 10:22:42;;;;;;;0.20;0.10;;;15.60;99.90;;;;;;21153988;28;20402;-68
2023/02/22 10:32:50;;;;;;;0.20;0.10;;;15.50;99.90;;;;;;21105098;27;20408;-68
2023/02/22 10:42:56;;;;;;;0.20;0.10;;;15.50;99.90;;;;;;21083325;28;20407;-69
2023/02/22 10:53:00;;;;;;;0.20;0.10;;;15.70;99.90;;;;;;21110835;28;20430;-68
2023/02/22 11:03:16;;;;;;;0.20;0.00;;;16.10;99.90;;;;;;21095922;28;20402;-70
2023/02/22 11:13:25;;;;;;;0.20;0.10;;;16.20;99.90;;;;;;21132107;28;20417;-69
2023/02/22 11:23:32;;;;;;;0.80;0.80;;;16.10;99.90;;;;;;21115756;28;20433;-69
2023/02/22 11:33:36;;;;;;;0.20;0.10;;;17.00;99.90;;;;;;21053960;28;20431;-68
2023/02/22 11:43:42;;;;;;;0.20;0.10;;;17.10;99.90;;;;;;21082767;28;20394;-68
2023/02/22 11:54:27;;;;;;;0.50;0.50;;;17.70;99.90;;;;;;21148870;28;20410;-68
2023/02/22 12:04:49;;;;;;;0.20;0.10;;;17.90;99.90;;;;;;21147727;28;20403;-68
2023/02/22 12:14:59;;;;;;;0.20;0.10;;;18.30;99.90;;;;;;21111493;28;20406;-68
2023/02/22 12:25:13;;;;;;;0.20;0.00;;;18.30;99.90;;;;;;21059506;28;20399;-68
2023/02/22 12:35:21;;;;;;;0.20;0.00;;;18.90;99.90;;;;;;21061213;28;20424;-68
2023/02/22 12:45:34;;;;;;;0.20;0.10;;;18.80;99.90;;;;;;21092693;28;20731;-68
2023/02/22 12:55:44;;;;;;;0.20;0.00;;;19.10;99.90;;;;;;21126067;28;20897;-68
2023/02/22 13:05:56;;;;;;;0.20;0.10;;;19.70;99.90;;;;;;21125130;28;20393;-67
2023/02/22 13:16:10;;;;;;;0.20;0.10;;;19.50;99.90;;;;;;21143336;28;20418;-69
2023/02/22 13:26:23;;;;;;;0.20;0.10;;;18.90;99.90;;;;;;21127207;28;20437;-68
2023/02/22 13:36:38;;;;;;;0.20;0.08;;;19.20;99.90;;;;;;21062078;28;20408;-68
2023/02/22 13:47:09;;;;;;;0.20;0.00;;;19.50;99.90;;;;;;21126998;28;20398;-68
2023/02/22 13:57:22;;;;;;;0.20;0.00;;;20.30;99.90;;;;;;21140761;28;20456;-68
2023/02/22 14:07:57;;;;;;;0.20;0.00;;;20.10;99.90;;;;;;21139327;28;20429;-68
2023/02/22 14:18:02;;;;;;;0.20;0.08;;;20.60;99.90;;;;;;21098405;28;20414;-68
2023/02/22 14:28:08;;;;;;;0.20;0.00;;;20.20;99.90;;;;;;21105187;28;20408;-68
2023/02/22 14:38:19;;;;;;;0.20;0.00;;;20.70;99.90;;;;;;21071002;28;20400;-68
2023/02/22 14:48:36;;;;;;;0.20;0.10;;;20.90;99.90;;;;;;21074481;28;20830;-68
2023/02/22 14:58:45;;;;;;;0.20;0.03;;;20.30;99.90;;;;;;21149167;28;20415;-68
2023/02/22 15:09:05;;;;;;;0.20;0.00;;;20.20;99.90;;;;;;21148170;28;20489;-70
2023/02/22 15:19:12;;;;;;;0.20;0.10;;;20.10;99.90;;;;;;21128885;28;20411;-70
2023/02/22 15:29:23;;;;;;;0.20;0.00;;;19.60;99.90;;;;;;21088656;28;20424;-65
2023/02/22 15:39:31;;;;;;;0.20;0.10;;;19.10;99.90;;;;;;21077768;28;20448;-68
2023/02/22 15:49:43;;;;;;;0.20;0.10;;;18.70;99.90;;;;;;21111312;28;20459;-68
2023/02/22 15:59:51;;;;;;;0.20;0.10;;;18.00;99.90;;;;;;21143738;28;20468;-62
2023/02/22 16:09:57;;;;;;;0.20;0.10;;;17.90;99.90;;;;;;21140285;28;20878;-68
2023/02/22 16:20:04;;;;;;;0.20;0.10;;;17.00;99.90;;;;;;21140798;28;20403;-68
2023/02/22 16:30:24;;;;;;;0.20;0.10;;;16.70;99.90;;;;;;21147806;27;20398;-68
2023/02/22 16:40:33;;;;;;;0.20;0.10;;;16.40;99.90;;;;;;21121677;28;20532;-68
2023/02/22 16:50:38;;;;;;;0.20;0.00;;;15.90;99.90;;;;;;21121405;28;20462;-68
2023/02/22 17:00:43;;;;;;;0.20;0.08;;;15.50;99.90;;;;;;21138950;28;20409;-67
2023/02/22 17:10:50;;;;;;;0.20;0.10;;;15.30;99.90;;;;;;21138295;28;20403;-69
2023/02/22 17:20:54;;;;;;;0.20;0.10;;;15.10;99.90;;;;;;21130824;28;20485;-68
2023/02/22 17:31:01;;;;;;;0.20;0.10;;;14.90;99.90;;;;;;21100009;28;20397;-69
2023/02/22 17:41:07;;;;;;;0.20;0.10;;;14.80;99.90;;;;;;21098317;28;20417;-68
2023/02/22 17:51:13;;;;;;;0.20;0.10;;;14.60;99.90;;;;;;21119854;28;20406;-69
2023/02/22 18:01:23;;;;;;;0.20;0.10;;;14.40;99.90;;;;;;21137649;28;20406;-70
2023/02/22 18:11:31;;;;;;;0.20;0.10;;;14.40;99.90;;;;;;21137739;28;20390;-70
2023/02/22 18:21:36;;;;;;;0.20;0.07;;;14.30;99.90;;;;;;21125777;28;20758;-68
2023/02/22 18:31:44;;;;;;;0.20;0.05;;;14.00;99.90;;;;;;21150917;28;20432;-69
2023/02/22 18:41:48;;;;;;;0.20;0.00;;;14.00;99.90;;;;;;21150075;28;20418;-71
2023/02/22 18:51:54;;;;;;;0.20;0.10;;;13.70;99.90;;;;;;21131650;28;20497;-69
2023/02/22 19:01:58;;;;;;;0.20;0.10;;;13.80;99.90;;;;;;21113095;28;20913;-68
2023/02/22 19:12:15;;;;;;;0.20;0.10;;;13.40;99.90;;;;;;21129924;28;20873;-68
2023/02/22 19:22:48;;;;;;;0.20;0.10;;;13.20;99.90;;;;;;21097552;28;20419;-68
2023/02/22 19:32:53;;;;;;;0.20;0.10;;;13.00;99.90;;;;;;21110983;28;20455;-69
2023/02/22 19:42:58;;;;;;;0.20;0.10;;;12.70;99.90;;;;;;21146028;28;20475;-69
2023/02/22 19:53:04;;;;;;;0.20;0.10;;;12.70;99.90;;;;;;21143862;28;20413;-69
2023/02/22 20:03:12;;;;;;;0.20;0.00;;;12.90;99.90;;;;;;21143971;28;20478;-68
2023/02/22 20:13:17;;;;;;;0.20;0.00;;;12.70;99.90;;;;;;21124707;28;20395;-68
2023/02/22 20:23:21;;;;;;;0.20;0.00;;;12.50;99.90;;;;;;21140231;28;20398;-70
2023/02/22 20:33:27;;;;;;;0.20;0.10;;;12.20;99.90;;;;;;21141656;28;20417;-70
2023/02/22 20:43:31;;;;;;;0.20;0.00;;;11.80;99.90;;;;;;21157081;27;20398;-74
2023/02/22 20:53:38;;;;;;;0.20;0.00;;;11.50;99.90;;;;;;21135423;28;20414;-75
2023/02/22 21:03:42;;;;;;;0.20;0.00;;;11.50;99.90;;;;;;21132345;28;20424;-74
2023/02/22 21:13:47;;;;;;;0.20;0.00;;;11.20;99.90;;;;;;21075159;28;20861;-74
2023/02/22 21:23:52;;;;;;;0.20;0.00;;;11.20;99.90;;;;;;21131912;28;20488;-75
2023/02/22 21:33:59;;;;;;;0.20;0.10;;;10.90;99.90;;;;;;21137095;28;20892;-75
2023/02/22 21:44:03;;;;;;;0.20;0.10;;;11.20;99.90;;;;;;21139553;28;20413;-74
2023/02/22 21:54:10;;;;;;;2.20;2.10;;;11.20;99.90;;;;;;21144596;28;20410;-74
2023/02/22 22:04:17;;;;;;;0.20;0.10;;;11.00;99.90;;;;;;21134511;28;20438;-73
2023/02/22 22:14:24;;;;;;;0.20;0.10;;;11.00;99.90;;;;;;21122115;28;20440;-70
2023/02/22 22:24:29;;;;;;;0.20;0.10;;;11.10;99.90;;;;;;21136292;28;20922;-69
2023/02/22 22:34:36;;;;;;;0.20;0.10;;;11.10;99.90;;;;;;21125942;28;21071;-70
2023/02/22 22:44:41;;;;;;;0.20;0.00;;;11.20;99.90;;;;;;21133674;28;20399;-70
2023/02/22 22:54:49;;;;;;;0.20;0.10;;;11.20;99.90;;;;;;21149468;28;20441;-70
2023/02/22 23:04:53;;;;;;;0.20;0.00;;;11.20;99.90;;;;;;21140012;28;20403;-71
2023/02/22 23:14:58;;;;;;;0.20;0.10;;;11.40;99.90;;;;;;21150319;28;20406;-69
2023/02/22 23:25:02;;;;;;;0.20;0.10;;;11.30;99.90;;;;;;21149112;28;20464;-70
2023/02/22 23:35:10;;;;;;;0.20;0.10;;;11.30;99.90;;;;;;21062466;28;20510;-70
2023/02/22 23:45:21;;;;;;;0.20;0.10;;;11.60;99.90;;;;;;21058276;28;21190;-69
2023/02/22 23:55:30;;;;;;;0.20;0.10;;;11.30;99.90;;;;;;21043882;28;20408;-70
